createdAt,value
2023-01-17T00:01:22.991Z,63.76
2023-01-17T00:03:50.031Z,66.25
2023-01-17T00:06:16.899Z,67.28
2023-01-17T00:08:44.031Z,66.25
2023-01-17T00:11:11.296Z,66.51
2023-01-17T00:13:38.336Z,65.82
2023-01-17T00:16:05.471Z,67.40
2023-01-17T00:18:32.393Z,67.03
2023-01-17T00:20:59.294Z,66.69
2023-01-17T00:23:26.607Z,65.92
2023-01-17T00:25:53.857Z,65.43
2023-01-17T00:28:20.743Z,65.13
2023-01-17T00:30:47.716Z,66.04
2023-01-17T00:33:14.693Z,65.08
2023-01-17T00:35:41.772Z,64.78
2023-01-17T00:38:14.159Z,64.49
2023-01-17T00:40:43.541Z,67.00
2023-01-17T00:43:14.813Z,68.14
2023-01-17T00:45:44.014Z,66.96
2023-01-17T00:48:10.903Z,66.96
2023-01-17T00:50:38.062Z,67.34
2023-01-17T00:53:05.862Z,69.63
2023-01-17T00:55:33.762Z,69.36
2023-01-17T00:58:09.584Z,67.89
2023-01-17T01:00:36.570Z,66.92
2023-01-17T01:03:09.390Z,66.85
2023-01-17T01:05:38.064Z,66.56
2023-01-17T01:08:26.001Z,66.54
2023-01-17T01:10:52.983Z,66.92
2023-01-17T01:13:24.098Z,69.65
2023-01-17T01:15:50.985Z,70.09
2023-01-17T01:18:18.065Z,68.58
2023-01-17T01:20:44.890Z,67.71
2023-01-17T01:23:11.880Z,69.30
2023-01-17T01:25:38.711Z,72.74
2023-01-17T01:28:09.991Z,72.22
2023-01-17T01:30:36.912Z,71.98
2023-01-17T01:33:12.049Z,69.96
2023-01-17T01:35:38.876Z,70.13
2023-01-17T01:38:05.920Z,70.41
2023-01-17T01:40:32.868Z,70.16
2023-01-17T01:43:01.854Z,70.26
2023-01-17T01:45:31.027Z,69.18
2023-01-17T01:48:27.181Z,68.59
2023-01-17T01:50:54.228Z,68.80
2023-01-17T01:53:21.947Z,70.06
2023-01-17T01:55:51.122Z,71.14
2023-01-17T01:58:28.905Z,70.68
2023-01-17T02:00:55.991Z,70.09
2023-01-17T02:03:32.043Z,70.41
2023-01-17T02:06:07.262Z,69.22
2023-01-17T02:08:34.830Z,68.53
2023-01-17T02:11:03.311Z,69.91
2023-01-17T02:13:30.775Z,71.19
2023-01-17T02:15:57.738Z,70.57
2023-01-17T02:18:53.812Z,69.01
2023-01-17T02:21:34.411Z,70.71
2023-01-17T02:24:25.995Z,70.85
2023-01-17T02:27:48.396Z,71.17
2023-01-17T02:30:38.162Z,71.40
2023-01-17T02:33:25.263Z,70.52
2023-01-17T02:35:59.989Z,69.77
2023-01-17T02:38:56.135Z,68.61
2023-01-17T02:41:29.852Z,68.55
2023-01-17T02:43:57.194Z,67.97
2023-01-17T02:46:24.503Z,67.81
2023-01-17T02:48:52.397Z,67.48
2023-01-17T02:51:22.051Z,67.53
2023-01-17T02:54:13.848Z,67.77
2023-01-17T02:56:48.043Z,67.36
2023-01-17T02:59:36.117Z,67.79
2023-01-17T03:02:35.052Z,69.83
2023-01-17T03:05:05.052Z,68.93
2023-01-17T03:07:33.297Z,68.64
2023-01-17T03:10:02.923Z,68.76
2023-01-17T03:12:32.226Z,67.77
2023-01-17T03:14:59.292Z,67.58
2023-01-17T03:17:31.627Z,67.96
2023-01-17T03:19:59.203Z,68.19
2023-01-17T03:22:26.157Z,67.82
2023-01-17T03:24:53.042Z,67.33
2023-01-17T03:27:20.041Z,67.35
2023-01-17T03:29:46.983Z,66.66
2023-01-17T03:32:14.014Z,67.16
2023-01-17T03:34:40.978Z,67.19
2023-01-17T03:37:07.976Z,68.19
2023-01-17T03:39:34.768Z,71.09
2023-01-17T03:42:01.994Z,69.48
2023-01-17T03:44:28.929Z,68.99
2023-01-17T03:46:55.952Z,69.51
2023-01-17T03:49:22.942Z,70.81
2023-01-17T03:51:49.902Z,69.46
2023-01-17T03:54:16.921Z,69.71
2023-01-17T03:56:44.002Z,71.00
2023-01-17T03:59:13.053Z,69.30
2023-01-17T04:01:40.340Z,69.57
2023-01-17T04:04:07.464Z,69.34
2023-01-17T04:06:34.346Z,68.86
2023-01-17T04:09:01.309Z,68.30
2023-01-17T04:11:28.694Z,68.49
2023-01-17T04:13:55.666Z,72.49
2023-01-17T04:16:28.494Z,72.24
2023-01-17T04:18:55.794Z,70.74
2023-01-17T04:21:22.975Z,70.44
2023-01-17T04:23:50.380Z,73.57
2023-01-17T04:26:17.359Z,73.48
2023-01-17T04:28:44.539Z,71.71
2023-01-17T04:31:16.331Z,71.27
2023-01-17T04:33:43.497Z,73.81
2023-01-17T04:36:10.345Z,72.91
2023-01-17T04:38:37.504Z,72.62
2023-01-17T04:41:04.811Z,72.28
2023-01-17T04:43:31.710Z,75.04
2023-01-17T04:45:59.301Z,75.00
2023-01-17T04:48:26.587Z,79.65
2023-01-17T04:51:03.718Z,79.29
2023-01-17T04:53:31.167Z,78.85
2023-01-17T04:55:58.359Z,78.78
2023-01-17T04:58:25.333Z,78.53
2023-01-17T05:00:52.182Z,76.76
2023-01-17T05:03:20.551Z,75.47
2023-01-17T05:05:47.651Z,75.56
2023-01-17T05:08:15.197Z,76.13
2023-01-17T05:10:42.106Z,78.39
2023-01-17T05:13:11.098Z,76.35
2023-01-17T05:15:38.410Z,77.75
2023-01-17T05:18:05.429Z,77.03
2023-01-17T05:20:32.378Z,77.11
2023-01-17T05:22:59.404Z,78.28
2023-01-17T05:25:28.846Z,75.02
2023-01-17T05:27:56.155Z,75.36
2023-01-17T05:30:23.447Z,74.92
2023-01-17T05:32:54.902Z,74.73
2023-01-17T05:35:24.993Z,74.03
2023-01-17T05:37:53.288Z,74.67
2023-01-17T05:40:22.684Z,75.19
2023-01-17T05:42:52.198Z,76.51
2023-01-17T05:45:21.063Z,75.16
2023-01-17T05:47:50.196Z,74.36
2023-01-17T05:50:29.241Z,73.84
2023-01-17T05:53:11.389Z,74.46
2023-01-17T05:55:38.546Z,73.90
2023-01-17T05:58:06.874Z,76.29
2023-01-17T06:00:33.906Z,76.89
2023-01-17T06:03:01.389Z,77.10
2023-01-17T06:05:29.820Z,76.01
2023-01-17T06:07:57.289Z,76.17
2023-01-17T06:10:25.338Z,75.79
2023-01-17T06:13:20.627Z,75.76
2023-01-17T06:15:48.376Z,75.00
2023-01-17T06:18:17.626Z,73.58
2023-01-17T06:20:45.317Z,72.93
2023-01-17T06:23:14.286Z,70.78
2023-01-17T06:25:43.862Z,69.98
2023-01-17T06:28:12.385Z,69.31
2023-01-17T06:30:39.644Z,69.57
2023-01-17T06:33:06.664Z,68.67
2023-01-17T06:35:33.998Z,67.79
2023-01-17T06:38:00.883Z,67.32
2023-01-17T06:40:29.065Z,66.01
2023-01-17T06:43:03.261Z,65.15
2023-01-17T06:45:31.757Z,65.55
2023-01-17T06:48:00.660Z,65.43
2023-01-17T06:50:27.892Z,65.66
2023-01-17T06:53:00.541Z,67.06
2023-01-17T06:55:29.886Z,65.85
2023-01-17T06:57:58.431Z,66.62
2023-01-17T07:00:26.531Z,66.22
2023-01-17T07:02:54.055Z,65.06
2023-01-17T07:05:21.414Z,62.12
2023-01-17T07:07:48.696Z,64.30
2023-01-17T07:10:16.137Z,66.57
2023-01-17T07:12:43.074Z,66.20
2023-01-17T07:15:10.646Z,66.16
2023-01-17T07:17:37.779Z,66.23
2023-01-17T07:20:05.154Z,66.18
2023-01-17T07:22:32.153Z,66.88
2023-01-17T07:24:58.974Z,66.89
2023-01-17T07:27:26.886Z,67.36
2023-01-17T07:29:54.353Z,66.94
2023-01-17T07:32:21.474Z,66.39
2023-01-17T07:34:49.191Z,66.13
2023-01-17T07:37:16.155Z,66.24
2023-01-17T07:39:43.160Z,64.70
2023-01-17T07:42:10.035Z,65.06
2023-01-17T07:44:36.853Z,64.82
2023-01-17T07:47:03.695Z,64.36
2023-01-17T07:49:30.585Z,63.58
2023-01-17T07:51:57.499Z,63.88
2023-01-17T07:54:24.445Z,64.11
2023-01-17T07:56:51.320Z,64.13
2023-01-17T07:59:18.341Z,64.45
2023-01-17T08:01:45.532Z,64.94
2023-01-17T08:04:12.737Z,63.85
2023-01-17T08:06:43.297Z,64.50
2023-01-17T08:09:10.235Z,62.29
2023-01-17T08:11:37.240Z,62.24
2023-01-17T08:14:04.123Z,62.64
2023-01-17T08:16:30.994Z,63.65
2023-01-17T08:18:57.920Z,63.38
2023-01-17T08:21:24.963Z,62.39
2023-01-17T08:23:56.202Z,62.62
2023-01-17T08:26:23.239Z,62.54
2023-01-17T08:28:58.534Z,62.06
2023-01-17T08:31:25.449Z,60.86
2023-01-17T08:33:52.403Z,61.17
2023-01-17T08:36:19.361Z,60.55
2023-01-17T08:38:46.263Z,60.84
2023-01-17T08:41:13.155Z,60.60
2023-01-17T08:43:40.040Z,60.56
2023-01-17T08:46:06.950Z,60.45
2023-01-17T08:48:33.835Z,60.03
2023-01-17T08:51:02.324Z,59.77
2023-01-17T08:53:29.150Z,59.65
2023-01-17T08:56:00.956Z,59.52
2023-01-17T08:58:30.689Z,58.52
2023-01-17T09:01:06.128Z,59.18
2023-01-17T09:03:34.772Z,58.09
2023-01-17T09:06:07.441Z,59.13
2023-01-17T09:08:35.312Z,57.62
2023-01-17T09:11:12.616Z,58.34
2023-01-17T09:13:40.412Z,58.98
2023-01-17T09:16:08.393Z,59.74
2023-01-17T09:18:36.446Z,59.70
2023-01-17T09:21:14.752Z,60.14
2023-01-17T09:23:42.296Z,60.57
2023-01-17T09:26:28.269Z,59.07
2023-01-17T09:28:56.049Z,59.84
2023-01-17T09:31:23.904Z,60.08
2023-01-17T09:33:52.047Z,58.72
2023-01-17T09:36:19.610Z,58.84
2023-01-17T09:38:47.130Z,56.24
2023-01-17T09:41:24.977Z,54.70
2023-01-17T09:44:07.734Z,54.78
2023-01-17T09:46:41.400Z,54.48
2023-01-17T09:49:30.522Z,55.21
2023-01-17T09:51:58.023Z,54.95
2023-01-17T09:54:32.890Z,54.13
2023-01-17T09:57:13.630Z,53.56
2023-01-17T10:00:04.793Z,54.61
2023-01-17T10:03:15.768Z,56.00
2023-01-17T10:06:07.339Z,55.23
2023-01-17T10:08:34.174Z,54.88
2023-01-17T10:11:13.071Z,54.99
2023-01-17T10:13:53.954Z,55.20
2023-01-17T10:16:42.081Z,54.46
2023-01-17T10:19:31.477Z,53.78
2023-01-17T10:22:40.212Z,51.29
2023-01-17T10:25:35.638Z,51.32
2023-01-17T10:28:12.376Z,50.73
2023-01-17T10:30:43.861Z,49.72
2023-01-17T10:33:41.669Z,48.52
2023-01-17T10:36:15.953Z,49.11
2023-01-17T10:38:47.625Z,47.55
2023-01-17T10:41:29.491Z,47.43
2023-01-17T10:44:20.023Z,46.67
2023-01-17T10:47:10.924Z,47.48
2023-01-17T10:49:46.018Z,48.08
2023-01-17T10:52:19.468Z,47.90
2023-01-17T10:54:55.223Z,48.14
2023-01-17T10:57:25.207Z,47.21
2023-01-17T10:59:58.069Z,47.06
2023-01-17T11:02:30.067Z,46.73
2023-01-17T11:05:01.255Z,46.94
2023-01-17T11:07:29.752Z,46.65
2023-01-17T11:09:59.314Z,47.95
2023-01-17T11:12:45.225Z,48.00
2023-01-17T11:15:12.074Z,47.74
2023-01-17T11:17:44.769Z,47.39
2023-01-17T11:20:28.247Z,47.96
2023-01-17T11:23:18.530Z,47.91
2023-01-17T11:25:57.791Z,47.56
2023-01-17T11:28:27.797Z,48.45
2023-01-17T11:31:02.548Z,48.56
2023-01-17T11:33:44.509Z,48.34
2023-01-17T11:36:29.950Z,47.93
2023-01-17T11:38:58.186Z,46.72
2023-01-17T11:41:26.489Z,46.69
2023-01-17T11:43:58.798Z,46.43
2023-01-17T11:46:27.133Z,45.89
2023-01-17T11:48:59.201Z,46.15
2023-01-17T11:51:33.386Z,46.61
2023-01-17T11:54:18.641Z,45.78
2023-01-17T11:56:45.594Z,46.31
2023-01-17T11:59:29.735Z,45.85
2023-01-17T12:02:02.259Z,45.32
2023-01-17T12:04:43.522Z,46.20
2023-01-17T12:07:29.265Z,45.78
2023-01-17T12:10:03.509Z,44.75
2023-01-17T12:12:44.105Z,45.38
2023-01-17T12:16:07.832Z,45.30
2023-01-17T12:18:40.752Z,45.45
2023-01-17T12:21:17.638Z,45.77
2023-01-17T12:24:02.439Z,47.43
2023-01-17T12:27:09.679Z,46.54
2023-01-17T12:29:54.717Z,46.43
2023-01-17T12:32:30.661Z,46.68
2023-01-17T12:35:15.501Z,47.39
2023-01-17T12:37:52.692Z,48.49
2023-01-17T12:40:37.530Z,48.71
2023-01-17T12:43:22.304Z,48.81
2023-01-17T12:45:52.468Z,48.96
2023-01-17T12:48:22.401Z,49.16
2023-01-17T12:51:24.755Z,48.88
2023-01-17T12:54:09.705Z,49.88
2023-01-17T12:56:54.185Z,50.10
2023-01-17T12:59:48.354Z,49.52
2023-01-17T13:02:52.516Z,50.04
2023-01-17T13:05:45.218Z,50.41
2023-01-17T13:08:20.915Z,49.96
2023-01-17T13:11:02.485Z,49.86
2023-01-17T13:13:31.039Z,50.50
2023-01-17T13:16:03.139Z,49.55
2023-01-17T13:18:30.305Z,48.86
2023-01-17T13:21:29.052Z,49.14
2023-01-17T13:23:59.024Z,48.78
2023-01-17T13:26:49.062Z,48.79
2023-01-17T13:29:33.898Z,49.66
2023-01-17T13:32:28.668Z,49.36
2023-01-17T13:35:21.262Z,49.37
2023-01-17T13:38:26.216Z,49.64
2023-01-17T13:41:11.263Z,48.81
2023-01-17T13:43:41.477Z,49.46
2023-01-17T13:46:08.408Z,49.48
2023-01-17T13:48:36.867Z,49.72
2023-01-17T13:51:05.951Z,50.22
2023-01-17T13:53:35.833Z,50.26
2023-01-17T13:56:26.270Z,50.11
2023-01-17T13:59:01.768Z,51.06
2023-01-17T14:01:34.619Z,50.84
2023-01-17T14:04:04.743Z,51.10
2023-01-17T14:06:40.493Z,51.40
2023-01-17T14:09:31.566Z,50.22
2023-01-17T14:12:24.364Z,50.87
2023-01-17T14:14:54.634Z,51.45
2023-01-17T14:17:21.517Z,51.06
2023-01-17T14:19:53.357Z,50.69
2023-01-17T14:22:20.167Z,50.50
2023-01-17T14:25:03.170Z,51.37
2023-01-17T14:27:34.139Z,50.94
2023-01-17T14:30:05.777Z,51.00
2023-01-17T14:32:35.625Z,51.44
2023-01-17T14:35:03.956Z,51.40
2023-01-17T14:37:46.397Z,51.79
2023-01-17T14:40:25.121Z,51.63
2023-01-17T14:43:23.251Z,52.28
2023-01-17T14:45:57.732Z,52.00
2023-01-17T14:48:24.871Z,51.84
2023-01-17T14:50:54.000Z,52.52
2023-01-17T14:53:24.347Z,52.13
2023-01-17T14:55:53.666Z,51.83
2023-01-17T14:58:25.980Z,52.35
2023-01-17T15:00:57.935Z,52.58
2023-01-17T15:03:25.037Z,52.06
2023-01-17T15:05:54.175Z,52.37
2023-01-17T15:08:25.208Z,52.56
2023-01-17T15:11:03.612Z,52.19
2023-01-17T15:13:44.208Z,52.07
2023-01-17T15:16:25.103Z,52.22
2023-01-17T15:18:53.730Z,51.87
2023-01-17T15:21:24.945Z,52.09
2023-01-17T15:23:57.398Z,52.08
2023-01-17T15:26:27.363Z,51.87
2023-01-17T15:29:07.011Z,52.21
2023-01-17T15:31:49.634Z,52.30
2023-01-17T15:34:31.989Z,52.03
2023-01-17T15:37:07.907Z,51.82
2023-01-17T15:39:37.563Z,51.83
2023-01-17T15:42:19.002Z,51.62
2023-01-17T15:44:49.201Z,51.16
2023-01-17T15:47:34.342Z,51.22
2023-01-17T15:50:22.166Z,51.21
2023-01-17T15:52:50.555Z,51.07
2023-01-17T15:55:26.388Z,51.29
2023-01-17T15:57:53.345Z,51.00
2023-01-17T16:00:27.831Z,50.85
2023-01-17T16:02:55.420Z,50.58
2023-01-17T16:05:22.885Z,50.30
2023-01-17T16:07:52.348Z,50.59
2023-01-17T16:10:20.774Z,51.08
2023-01-17T16:12:49.718Z,51.34
2023-01-17T16:15:18.395Z,50.52
2023-01-17T16:17:48.581Z,51.35
2023-01-17T16:20:21.342Z,50.81
2023-01-17T16:22:49.735Z,51.28
2023-01-17T16:25:19.531Z,51.26
2023-01-17T16:27:47.027Z,51.51
2023-01-17T16:30:17.615Z,51.85
2023-01-17T16:32:46.312Z,51.56
2023-01-17T16:35:19.298Z,51.40
2023-01-17T16:37:53.310Z,50.94
2023-01-17T16:40:22.583Z,51.79
2023-01-17T16:42:49.442Z,52.63
2023-01-17T16:45:17.821Z,52.86
2023-01-17T16:47:46.453Z,52.66
2023-01-17T16:50:15.515Z,52.68
2023-01-17T16:52:42.812Z,52.87
2023-01-17T16:55:14.721Z,52.69
2023-01-17T16:57:41.771Z,52.63
2023-01-17T17:00:10.480Z,52.93
2023-01-17T17:02:37.557Z,52.65
2023-01-17T17:05:04.998Z,52.58
2023-01-17T17:07:32.049Z,52.24
2023-01-17T17:10:00.404Z,52.42
2023-01-17T17:12:27.331Z,52.63
2023-01-17T17:14:54.204Z,52.44
2023-01-17T17:17:21.127Z,52.69
2023-01-17T17:19:48.054Z,52.66
2023-01-17T17:22:15.021Z,52.84
2023-01-17T17:24:42.035Z,52.82
2023-01-17T17:27:08.904Z,52.59
2023-01-17T17:29:35.837Z,52.71
2023-01-17T17:32:02.728Z,52.68
2023-01-17T17:34:29.680Z,52.48
2023-01-17T17:36:56.596Z,52.73
2023-01-17T17:39:23.439Z,52.48
2023-01-17T17:41:50.311Z,52.90
2023-01-17T17:44:17.156Z,52.15
2023-01-17T17:46:44.101Z,52.15
2023-01-17T17:49:11.033Z,52.72
2023-01-17T17:51:39.934Z,52.70
2023-01-17T17:54:12.086Z,52.59
2023-01-17T17:56:40.038Z,53.25
2023-01-17T17:59:08.961Z,53.23
2023-01-17T18:01:36.262Z,53.09
2023-01-17T18:04:04.373Z,52.73
2023-01-17T18:06:31.297Z,52.54
2023-01-17T18:08:58.238Z,52.80
2023-01-17T18:11:26.943Z,52.68
2023-01-17T18:13:55.701Z,52.88
2023-01-17T18:16:26.104Z,53.41
2023-01-17T18:18:55.664Z,53.46
2023-01-17T18:21:25.510Z,53.63
2023-01-17T18:23:57.777Z,53.39
2023-01-17T18:26:29.871Z,53.53
2023-01-17T18:28:58.174Z,53.57
2023-01-17T18:31:27.671Z,53.43
2023-01-17T18:33:56.303Z,54.14
2023-01-17T18:36:24.340Z,53.79
2023-01-17T18:38:52.334Z,54.04
2023-01-17T18:41:28.458Z,53.80
2023-01-17T18:43:55.606Z,53.27
2023-01-17T18:46:23.214Z,53.96
2023-01-17T18:48:50.265Z,53.85
2023-01-17T18:51:20.363Z,53.54
2023-01-17T18:53:47.335Z,53.64
2023-01-17T18:56:20.348Z,53.47
2023-01-17T18:58:49.500Z,53.96
2023-01-17T19:01:22.064Z,54.02
2023-01-17T19:03:51.948Z,55.53
2023-01-17T19:06:22.310Z,54.82
2023-01-17T19:08:52.229Z,54.10
2023-01-17T19:11:23.693Z,54.53
2023-01-17T19:13:50.744Z,53.97
2023-01-17T19:16:21.104Z,53.95
2023-01-17T19:18:48.081Z,53.61
2023-01-17T19:21:17.399Z,54.07
2023-01-17T19:23:44.873Z,53.99
2023-01-17T19:26:13.792Z,54.14
2023-01-17T19:28:42.672Z,54.07
2023-01-17T19:31:16.673Z,53.51
2023-01-17T19:33:45.640Z,53.92
2023-01-17T19:36:18.402Z,54.23
2023-01-17T19:39:03.101Z,54.67
2023-01-17T19:41:32.039Z,54.71
2023-01-17T19:44:01.594Z,54.62
2023-01-17T19:46:29.273Z,54.71
2023-01-17T19:48:57.803Z,54.65
2023-01-17T19:51:25.560Z,55.23
2023-01-17T19:53:52.404Z,56.30
2023-01-17T19:56:22.519Z,55.70
2023-01-17T19:58:49.560Z,56.40
2023-01-17T20:01:20.013Z,56.23
2023-01-17T20:03:47.452Z,56.48
2023-01-17T20:06:20.152Z,56.78
2023-01-17T20:08:47.001Z,57.24
2023-01-17T20:11:22.722Z,57.11
2023-01-17T20:13:52.717Z,57.27
2023-01-17T20:16:23.430Z,56.88
2023-01-17T20:18:50.661Z,57.00
2023-01-17T20:21:20.606Z,56.79
2023-01-17T20:23:48.505Z,56.79
2023-01-17T20:26:17.881Z,57.14
2023-01-17T20:28:47.005Z,57.00
2023-01-17T20:31:23.111Z,57.04
2023-01-17T20:33:50.994Z,57.23
2023-01-17T20:36:20.202Z,56.81
2023-01-17T20:38:47.250Z,56.86
2023-01-17T20:41:20.830Z,57.02
2023-01-17T20:43:52.065Z,56.97
2023-01-17T20:46:20.852Z,56.92
2023-01-17T20:48:50.661Z,56.53
2023-01-17T20:51:22.031Z,56.55
2023-01-17T20:53:54.362Z,56.94
2023-01-17T20:56:21.201Z,56.62
2023-01-17T20:58:49.579Z,56.42
2023-01-17T21:01:18.992Z,56.89
2023-01-17T21:03:47.251Z,57.53
2023-01-17T21:06:14.860Z,58.16
2023-01-17T21:08:45.158Z,57.90
2023-01-17T21:11:14.313Z,57.52
2023-01-17T21:13:41.629Z,56.81
2023-01-17T21:16:10.644Z,56.27
2023-01-17T21:18:37.750Z,56.51
2023-01-17T21:21:16.724Z,56.91
2023-01-17T21:23:44.602Z,57.31
2023-01-17T21:26:16.763Z,56.84
2023-01-17T21:28:45.983Z,57.93
2023-01-17T21:31:31.102Z,59.10
2023-01-17T21:33:59.461Z,59.33
2023-01-17T21:36:31.746Z,59.83
2023-01-17T21:39:00.222Z,58.83
2023-01-17T21:41:29.869Z,58.49
2023-01-17T21:43:58.766Z,58.08
2023-01-17T21:46:26.788Z,59.51
2023-01-17T21:48:53.786Z,60.36
2023-01-17T21:51:20.761Z,58.79
2023-01-17T21:53:47.689Z,59.02
2023-01-17T21:56:14.988Z,60.31
2023-01-17T21:58:41.813Z,60.41
2023-01-17T22:01:13.394Z,60.86
2023-01-17T22:03:40.476Z,60.72
2023-01-17T22:06:07.517Z,61.54
2023-01-17T22:08:35.108Z,62.29
2023-01-17T22:11:07.398Z,61.12
2023-01-17T22:13:35.160Z,61.75
2023-01-17T22:16:04.551Z,61.00
2023-01-17T22:18:33.240Z,61.65
2023-01-17T22:21:04.566Z,61.24
2023-01-17T22:23:31.495Z,61.78
2023-01-17T22:26:06.244Z,61.77
2023-01-17T22:28:33.820Z,62.05
2023-01-17T22:31:11.160Z,62.92
2023-01-17T22:33:39.667Z,62.05
2023-01-17T22:36:07.702Z,61.81
2023-01-17T22:38:35.379Z,61.18
2023-01-17T22:41:05.355Z,60.87
2023-01-17T22:43:32.239Z,60.40
2023-01-17T22:46:00.064Z,61.99
2023-01-17T22:48:27.009Z,62.12
2023-01-17T22:50:58.311Z,61.71
2023-01-17T22:53:25.194Z,62.76
2023-01-17T22:56:02.229Z,62.58
2023-01-17T22:58:29.393Z,62.35
2023-01-17T23:01:03.704Z,63.02
2023-01-17T23:03:30.616Z,64.14
2023-01-17T23:05:57.564Z,64.54
2023-01-17T23:08:24.738Z,64.92
2023-01-17T23:10:51.622Z,64.38
2023-01-17T23:13:18.504Z,64.35
2023-01-17T23:15:45.430Z,63.77
2023-01-17T23:18:12.324Z,64.68
2023-01-17T23:20:39.293Z,64.63
2023-01-17T23:23:06.262Z,63.78
2023-01-17T23:25:33.166Z,64.31
2023-01-17T23:27:59.995Z,64.97
2023-01-17T23:30:33.410Z,64.51
2023-01-17T23:33:08.810Z,64.76
2023-01-17T23:35:41.626Z,63.31
2023-01-17T23:38:13.808Z,63.01
2023-01-17T23:40:41.359Z,63.06
2023-01-17T23:43:11.759Z,62.88
2023-01-17T23:45:39.228Z,62.09
2023-01-17T23:48:07.717Z,61.58
2023-01-17T23:50:34.776Z,61.34
2023-01-17T23:53:02.664Z,61.57
2023-01-17T23:55:29.500Z,61.85
2023-01-17T23:57:56.443Z,60.99
